sensor_id;sensor_type;location;lat;lon;timestamp;pressure;altitude;pressure_sealevel;temperature;humidity
49342;BME280;35210;41.606;-87.602;2024-01-07T00:00:58;98536.31;;;5.43;89.29
49342;BME280;35210;41.606;-87.602;2024-01-07T00:03:28;98533.72;;;5.43;89.40
49342;BME280;35210;41.606;-87.602;2024-01-07T00:05:56;98532.66;;;5.45;89.32
49342;BME280;35210;41.606;-87.602;2024-01-07T00:08:24;98537.06;;;5.45;89.49
49342;BME280;35210;41.606;-87.602;2024-01-07T00:10:55;98547.41;;;5.46;89.53
49342;BME280;35210;41.606;-87.602;2024-01-07T00:13:24;98548.25;;;5.47;89.66
49342;BME280;35210;41.606;-87.602;2024-01-07T00:15:54;98535.91;;;5.49;89.52
49342;BME280;35210;41.606;-87.602;2024-01-07T00:18:24;98547.22;;;5.49;89.26
49342;BME280;35210;41.606;-87.602;2024-01-07T00:20:53;98535.78;;;5.50;89.35
49342;BME280;35210;41.606;-87.602;2024-01-07T00:23:22;98532.94;;;5.53;89.50
49342;BME280;35210;41.606;-87.602;2024-01-07T00:25:50;98536.41;;;5.54;89.15
49342;BME280;35210;41.606;-87.602;2024-01-07T00:28:19;98528.56;;;5.54;88.90
49342;BME280;35210;41.606;-87.602;2024-01-07T00:30:47;98531.16;;;5.54;89.07
49342;BME280;35210;41.606;-87.602;2024-01-07T00:33:17;98531.16;;;5.54;89.01
49342;BME280;35210;41.606;-87.602;2024-01-07T00:35:46;98534.63;;;5.54;89.03
49342;BME280;35210;41.606;-87.602;2024-01-07T00:38:14;98536.31;;;5.55;88.99
49342;BME280;35210;41.606;-87.602;2024-01-07T00:40:43;98534.63;;;5.54;89.12
49342;BME280;35210;41.606;-87.602;2024-01-07T00:43:12;98536.63;;;5.51;88.77
49342;BME280;35210;41.606;-87.602;2024-01-07T00:45:40;98542.19;;;5.46;88.87
49342;BME280;35210;41.606;-87.602;2024-01-07T00:48:08;98548.25;;;5.47;88.62
49342;BME280;35210;41.606;-87.602;2024-01-07T00:50:39;98547.84;;;5.40;88.62
49342;BME280;35210;41.606;-87.602;2024-01-07T00:53:08;98558.03;;;5.32;88.39
49342;BME280;35210;41.606;-87.602;2024-01-07T00:55:36;98558.75;;;5.21;88.77
49342;BME280;35210;41.606;-87.602;2024-01-07T00:58:04;98561.09;;;5.13;89.11
49342;BME280;35210;41.606;-87.602;2024-01-07T01:00:32;98554.59;;;5.06;89.96
49342;BME280;35210;41.606;-87.602;2024-01-07T01:03:01;98547.06;;;5.02;90.20
49342;BME280;35210;41.606;-87.602;2024-01-07T01:05:29;98548.94;;;5.00;91.26
49342;BME280;35210;41.606;-87.602;2024-01-07T01:07:59;98540.69;;;4.93;91.77
49342;BME280;35210;41.606;-87.602;2024-01-07T01:10:28;98541.22;;;4.85;92.38
49342;BME280;35210;41.606;-87.602;2024-01-07T01:12:57;98539.22;;;4.89;92.02
49342;BME280;35210;41.606;-87.602;2024-01-07T01:15:25;98536.81;;;4.99;92.43
49342;BME280;35210;41.606;-87.602;2024-01-07T01:17:53;98529.38;;;5.05;92.24
49342;BME280;35210;41.606;-87.602;2024-01-07T01:20:22;98528.22;;;5.09;92.62
49342;BME280;35210;41.606;-87.602;2024-01-07T01:22:51;98529.69;;;5.13;92.04
49342;BME280;35210;41.606;-87.602;2024-01-07T01:25:20;98532.19;;;5.15;91.90
49342;BME280;35210;41.606;-87.602;2024-01-07T01:27:48;98531.16;;;5.17;91.96
49342;BME280;35210;41.606;-87.602;2024-01-07T01:30:16;98528.66;;;5.16;91.65
49342;BME280;35210;41.606;-87.602;2024-01-07T01:32:44;98533.03;;;5.15;91.83
49342;BME280;35210;41.606;-87.602;2024-01-07T01:35:13;98526.97;;;5.15;91.46
49342;BME280;35210;41.606;-87.602;2024-01-07T01:37:41;98526.13;;;5.14;91.36
49342;BME280;35210;41.606;-87.602;2024-01-07T01:40:10;98523.31;;;5.17;91.86
49342;BME280;35210;41.606;-87.602;2024-01-07T01:42:44;98521.16;;;5.22;91.75
49342;BME280;35210;41.606;-87.602;2024-01-07T01:45:14;98526.09;;;5.27;91.30
49342;BME280;35210;41.606;-87.602;2024-01-07T01:47:43;98523.38;;;5.28;91.05
49342;BME280;35210;41.606;-87.602;2024-01-07T01:50:12;98519.69;;;5.31;91.27
49342;BME280;35210;41.606;-87.602;2024-01-07T01:52:40;98519.59;;;5.33;90.60
49342;BME280;35210;41.606;-87.602;2024-01-07T01:55:10;98522.22;;;5.33;90.71
49342;BME280;35210;41.606;-87.602;2024-01-07T01:57:41;98526.50;;;5.34;90.59
49342;BME280;35210;41.606;-87.602;2024-01-07T02:00:15;98527.56;;;5.31;90.53
49342;BME280;35210;41.606;-87.602;2024-01-07T02:02:44;98518.84;;;5.31;91.14
49342;BME280;35210;41.606;-87.602;2024-01-07T02:05:12;98519.69;;;5.31;90.70
49342;BME280;35210;41.606;-87.602;2024-01-07T02:07:40;98531.94;;;5.31;91.11
49342;BME280;35210;41.606;-87.602;2024-01-07T02:10:09;98519.81;;;5.29;91.13
49342;BME280;35210;41.606;-87.602;2024-01-07T02:12:38;98521.47;;;5.31;91.39
49342;BME280;35210;41.606;-87.602;2024-01-07T02:15:07;98517.81;;;5.33;90.78
49342;BME280;35210;41.606;-87.602;2024-01-07T02:17:37;98528.16;;;5.35;90.78
49342;BME280;35210;41.606;-87.602;2024-01-07T02:20:07;98523.78;;;5.35;90.96
49342;BME280;35210;41.606;-87.602;2024-01-07T02:22:35;98520.31;;;5.35;90.63
49342;BME280;35210;41.606;-87.602;2024-01-07T02:25:06;98523.03;;;5.33;90.81
49342;BME280;35210;41.606;-87.602;2024-01-07T02:27:34;98518.25;;;5.27;91.30
49342;BME280;35210;41.606;-87.602;2024-01-07T02:30:03;98518.81;;;5.19;90.96
49342;BME280;35210;41.606;-87.602;2024-01-07T02:32:31;98518.19;;;5.16;91.40
49342;BME280;35210;41.606;-87.602;2024-01-07T02:35:01;98515.44;;;5.17;91.60
49342;BME280;35210;41.606;-87.602;2024-01-07T02:37:33;98506.88;;;5.15;91.36
49342;BME280;35210;41.606;-87.602;2024-01-07T02:40:01;98518.72;;;5.08;91.52
49342;BME280;35210;41.606;-87.602;2024-01-07T02:42:31;98514.84;;;5.01;91.99
49342;BME280;35210;41.606;-87.602;2024-01-07T02:44:59;98523.63;;;5.00;91.97
49342;BME280;35210;41.606;-87.602;2024-01-07T02:47:27;98517.97;;;4.93;91.94
49342;BME280;35210;41.606;-87.602;2024-01-07T02:49:58;98521.63;;;4.91;92.15
49342;BME280;35210;41.606;-87.602;2024-01-07T02:52:26;98518.59;;;4.84;92.79
49342;BME280;35210;41.606;-87.602;2024-01-07T02:54:55;98531.16;;;4.79;92.55
49342;BME280;35210;41.606;-87.602;2024-01-07T02:57:23;98528.84;;;4.75;93.46
49342;BME280;35210;41.606;-87.602;2024-01-07T02:59:54;98519.84;;;4.79;93.14
49342;BME280;35210;41.606;-87.602;2024-01-07T03:02:23;98525.81;;;4.68;93.46
49342;BME280;35210;41.606;-87.602;2024-01-07T03:04:51;98514.81;;;4.63;94.04
49342;BME280;35210;41.606;-87.602;2024-01-07T03:07:20;98519.84;;;4.66;94.26
49342;BME280;35210;41.606;-87.602;2024-01-07T03:09:49;98518.81;;;4.69;94.70
49342;BME280;35210;41.606;-87.602;2024-01-07T03:12:17;98518.06;;;4.67;94.88
49342;BME280;35210;41.606;-87.602;2024-01-07T03:14:45;98522.06;;;4.72;95.44
49342;BME280;35210;41.606;-87.602;2024-01-07T03:17:15;98514.41;;;4.82;95.07
49342;BME280;35210;41.606;-87.602;2024-01-07T03:19:44;98507.31;;;4.84;94.70
49342;BME280;35210;41.606;-87.602;2024-01-07T03:22:12;98507.63;;;4.92;94.15
49342;BME280;35210;41.606;-87.602;2024-01-07T03:24:41;98512.97;;;4.90;94.72
49342;BME280;35210;41.606;-87.602;2024-01-07T03:27:10;98513.69;;;4.92;94.78
49342;BME280;35210;41.606;-87.602;2024-01-07T03:29:40;98513.16;;;4.87;94.45
49342;BME280;35210;41.606;-87.602;2024-01-07T03:32:09;98512.53;;;4.84;94.24
49342;BME280;35210;41.606;-87.602;2024-01-07T03:34:39;98512.22;;;4.88;94.30
49342;BME280;35210;41.606;-87.602;2024-01-07T03:37:07;98509.41;;;4.91;94.04
49342;BME280;35210;41.606;-87.602;2024-01-07T03:39:36;98510.22;;;4.92;93.86
49342;BME280;35210;41.606;-87.602;2024-01-07T03:42:04;98503.31;;;4.91;93.87
49342;BME280;35210;41.606;-87.602;2024-01-07T03:44:37;98510.88;;;4.95;94.18
49342;BME280;35210;41.606;-87.602;2024-01-07T03:47:06;98503.53;;;5.01;93.81
49342;BME280;35210;41.606;-87.602;2024-01-07T03:49:38;98516.50;;;5.02;94.05
49342;BME280;35210;41.606;-87.602;2024-01-07T03:52:07;98507.50;;;5.06;93.53
49342;BME280;35210;41.606;-87.602;2024-01-07T03:54:36;98517.97;;;5.06;93.68
49342;BME280;35210;41.606;-87.602;2024-01-07T03:57:05;98516.31;;;5.05;93.50
49342;BME280;35210;41.606;-87.602;2024-01-07T03:59:34;98519.84;;;5.04;93.29
49342;BME280;35210;41.606;-87.602;2024-01-07T04:02:02;98523.63;;;5.00;92.92
49342;BME280;35210;41.606;-87.602;2024-01-07T04:04:30;98520.50;;;4.95;92.45
49342;BME280;35210;41.606;-87.602;2024-01-07T04:07:01;98524.66;;;4.85;92.08
49342;BME280;35210;41.606;-87.602;2024-01-07T04:09:31;98522.25;;;4.82;92.70
49342;BME280;35210;41.606;-87.602;2024-01-07T04:12:00;98530.53;;;4.76;93.19
49342;BME280;35210;41.606;-87.602;2024-01-07T04:14:28;98534.28;;;4.72;93.05
49342;BME280;35210;41.606;-87.602;2024-01-07T04:17:00;98539.94;;;4.66;93.94
49342;BME280;35210;41.606;-87.602;2024-01-07T04:19:28;98535.22;;;4.58;93.88
49342;BME280;35210;41.606;-87.602;2024-01-07T04:21:56;98531.56;;;4.60;94.68
49342;BME280;35210;41.606;-87.602;2024-01-07T04:24:26;98541.19;;;4.60;95.12
49342;BME280;35210;41.606;-87.602;2024-01-07T04:26:57;98533.53;;;4.57;94.78
49342;BME280;35210;41.606;-87.602;2024-01-07T04:29:26;98532.59;;;4.58;94.93
49342;BME280;35210;41.606;-87.602;2024-01-07T04:31:54;98535.63;;;4.65;95.05
49342;BME280;35210;41.606;-87.602;2024-01-07T04:34:22;98530.00;;;4.71;95.21
49342;BME280;35210;41.606;-87.602;2024-01-07T04:36:51;98526.97;;;4.77;95.10
49342;BME280;35210;41.606;-87.602;2024-01-07T04:39:19;98525.81;;;4.81;95.08
49342;BME280;35210;41.606;-87.602;2024-01-07T04:41:49;98528.22;;;4.84;94.66
49342;BME280;35210;41.606;-87.602;2024-01-07T04:44:19;98526.44;;;4.84;95.07
49342;BME280;35210;41.606;-87.602;2024-01-07T04:46:48;98531.38;;;4.89;94.80
49342;BME280;35210;41.606;-87.602;2024-01-07T04:49:17;98530.44;;;4.90;94.74
49342;BME280;35210;41.606;-87.602;2024-01-07T04:51:47;98532.09;;;4.91;94.57
49342;BME280;35210;41.606;-87.602;2024-01-07T04:54:18;98537.13;;;4.94;94.19
49342;BME280;35210;41.606;-87.602;2024-01-07T04:56:51;98533.56;;;4.95;94.05
49342;BME280;35210;41.606;-87.602;2024-01-07T04:59:20;98534.31;;;4.97;93.78
49342;BME280;35210;41.606;-87.602;2024-01-07T05:01:50;98541.09;;;5.00;93.57
49342;BME280;35210;41.606;-87.602;2024-01-07T05:04:19;98534.31;;;4.97;93.34
49342;BME280;35210;41.606;-87.602;2024-01-07T05:06:47;98538.91;;;4.93;93.07
49342;BME280;35210;41.606;-87.602;2024-01-07T05:09:17;98535.34;;;4.94;93.15
49342;BME280;35210;41.606;-87.602;2024-01-07T05:11:45;98538.81;;;4.95;93.15
49342;BME280;35210;41.606;-87.602;2024-01-07T05:14:15;98540.69;;;4.93;92.94
49342;BME280;35210;41.606;-87.602;2024-01-07T05:16:45;98536.41;;;4.92;93.09
49342;BME280;35210;41.606;-87.602;2024-01-07T05:19:15;98536.41;;;4.92;92.93
49342;BME280;35210;41.606;-87.602;2024-01-07T05:21:44;98541.53;;;4.93;93.15
49342;BME280;35210;41.606;-87.602;2024-01-07T05:24:13;98548.63;;;4.91;93.30
49342;BME280;35210;41.606;-87.602;2024-01-07T05:26:43;98540.59;;;4.94;92.58
49342;BME280;35210;41.606;-87.602;2024-01-07T05:29:11;98541.63;;;4.92;93.18
49342;BME280;35210;41.606;-87.602;2024-01-07T05:31:43;98541.72;;;4.90;92.73
49342;BME280;35210;41.606;-87.602;2024-01-07T05:34:12;98529.28;;;4.94;92.32
49342;BME280;35210;41.606;-87.602;2024-01-07T05:36:40;98525.19;;;4.90;92.36
49342;BME280;35210;41.606;-87.602;2024-01-07T05:39:08;98529.50;;;4.91;92.05
49342;BME280;35210;41.606;-87.602;2024-01-07T05:41:39;98524.88;;;4.94;92.03
49342;BME280;35210;41.606;-87.602;2024-01-07T05:44:08;98532.22;;;4.89;91.99
49342;BME280;35210;41.606;-87.602;2024-01-07T05:46:39;98523.31;;;4.92;92.27
49342;BME280;35210;41.606;-87.602;2024-01-07T05:49:09;98526.13;;;4.89;91.83
49342;BME280;35210;41.606;-87.602;2024-01-07T05:51:39;98526.13;;;4.89;91.84
49342;BME280;35210;41.606;-87.602;2024-01-07T05:54:08;98519.66;;;4.82;92.50
49342;BME280;35210;41.606;-87.602;2024-01-07T05:56:39;98526.75;;;4.80;92.20
49342;BME280;35210;41.606;-87.602;2024-01-07T05:59:08;98527.06;;;4.75;92.24
49342;BME280;35210;41.606;-87.602;2024-01-07T06:01:36;98528.84;;;4.75;92.91
49342;BME280;35210;41.606;-87.602;2024-01-07T06:04:05;98526.97;;;4.77;92.83
49342;BME280;35210;41.606;-87.602;2024-01-07T06:06:35;98530.31;;;4.79;93.30
49342;BME280;35210;41.606;-87.602;2024-01-07T06:09:05;98528.66;;;4.78;92.67
49342;BME280;35210;41.606;-87.602;2024-01-07T06:11:33;98513.78;;;4.78;93.40
49342;BME280;35210;41.606;-87.602;2024-01-07T06:14:02;98514.63;;;4.79;92.62
49342;BME280;35210;41.606;-87.602;2024-01-07T06:16:30;98530.31;;;4.79;92.97
49342;BME280;35210;41.606;-87.602;2024-01-07T06:19:00;98522.38;;;4.80;92.61
49342;BME280;35210;41.606;-87.602;2024-01-07T06:21:28;98523.94;;;4.83;92.27
49342;BME280;35210;41.606;-87.602;2024-01-07T06:23:57;98516.19;;;4.81;91.89
49342;BME280;35210;41.606;-87.602;2024-01-07T06:26:25;98524.34;;;4.77;91.96
49342;BME280;35210;41.606;-87.602;2024-01-07T06:28:54;98521.75;;;4.77;92.01
49342;BME280;35210;41.606;-87.602;2024-01-07T06:31:22;98526.88;;;4.78;92.10
49342;BME280;35210;41.606;-87.602;2024-01-07T06:33:50;98515.78;;;4.75;92.36
49342;BME280;35210;41.606;-87.602;2024-01-07T06:36:18;98521.09;;;4.73;91.87
49342;BME280;35210;41.606;-87.602;2024-01-07T06:38:46;98525.50;;;4.73;92.26
49342;BME280;35210;41.606;-87.602;2024-01-07T06:41:17;98521.94;;;4.74;91.78
49342;BME280;35210;41.606;-87.602;2024-01-07T06:43:45;98522.34;;;4.68;92.39
49342;BME280;35210;41.606;-87.602;2024-01-07T06:46:15;98529.16;;;4.57;92.73
49342;BME280;35210;41.606;-87.602;2024-01-07T06:48:43;98528.41;;;4.55;92.43
49342;BME280;35210;41.606;-87.602;2024-01-07T06:51:11;98529.78;;;4.61;92.11
49342;BME280;35210;41.606;-87.602;2024-01-07T06:53:39;98523.50;;;4.51;92.64
49342;BME280;35210;41.606;-87.602;2024-01-07T06:56:08;98529.03;;;4.46;92.86
49342;BME280;35210;41.606;-87.602;2024-01-07T06:58:38;98542.09;;;4.46;93.33
49342;BME280;35210;41.606;-87.602;2024-01-07T07:01:07;98538.97;;;4.54;93.61
49342;BME280;35210;41.606;-87.602;2024-01-07T07:03:35;98542.72;;;4.50;93.53
49342;BME280;35210;41.606;-87.602;2024-01-07T07:06:03;98544.94;;;4.43;93.44
49342;BME280;35210;41.606;-87.602;2024-01-07T07:08:32;98550.91;;;4.45;93.68
49342;BME280;35210;41.606;-87.602;2024-01-07T07:11:01;98551.59;;;4.47;94.03
49342;BME280;35210;41.606;-87.602;2024-01-07T07:13:29;98554.03;;;4.38;93.77
49342;BME280;35210;41.606;-87.602;2024-01-07T07:15:59;98561.13;;;4.36;94.34
49342;BME280;35210;41.606;-87.602;2024-01-07T07:18:27;98552.34;;;4.37;93.79
49342;BME280;35210;41.606;-87.602;2024-01-07T07:20:55;98556.44;;;4.41;94.32
49342;BME280;35210;41.606;-87.602;2024-01-07T07:23:24;98559.16;;;4.39;94.39
49342;BME280;35210;41.606;-87.602;2024-01-07T07:25:52;98565.22;;;4.40;93.97
49342;BME280;35210;41.606;-87.602;2024-01-07T07:28:21;98561.75;;;4.39;94.17
49342;BME280;35210;41.606;-87.602;2024-01-07T07:30:50;98575.03;;;4.36;94.15
49342;BME280;35210;41.606;-87.602;2024-01-07T07:33:22;98571.56;;;4.36;93.93
49342;BME280;35210;41.606;-87.602;2024-01-07T07:35:50;98577.44;;;4.39;93.91
49342;BME280;35210;41.606;-87.602;2024-01-07T07:38:18;98577.94;;;4.32;93.47
49342;BME280;35210;41.606;-87.602;2024-01-07T07:40:46;98577.09;;;4.31;93.33
49342;BME280;35210;41.606;-87.602;2024-01-07T07:43:18;98579.19;;;4.26;94.04
49342;BME280;35210;41.606;-87.602;2024-01-07T07:45:47;98580.03;;;4.26;93.79
49342;BME280;35210;41.606;-87.602;2024-01-07T07:48:15;98574.78;;;4.26;93.40
49342;BME280;35210;41.606;-87.602;2024-01-07T07:50:44;98574.16;;;4.23;93.89
49342;BME280;35210;41.606;-87.602;2024-01-07T07:53:12;98579.56;;;4.20;94.40
49342;BME280;35210;41.606;-87.602;2024-01-07T07:55:40;98580.72;;;4.16;94.26
49342;BME280;35210;41.606;-87.602;2024-01-07T07:58:08;98586.03;;;4.14;94.31
49342;BME280;35210;41.606;-87.602;2024-01-07T08:00:36;98588.75;;;4.13;94.58
49342;BME280;35210;41.606;-87.602;2024-01-07T08:03:05;98585.78;;;4.05;94.90
49342;BME280;35210;41.606;-87.602;2024-01-07T08:05:33;98591.19;;;4.02;95.49
49342;BME280;35210;41.606;-87.602;2024-01-07T08:08:04;98586.53;;;4.07;95.50
49342;BME280;35210;41.606;-87.602;2024-01-07T08:10:32;98594.56;;;4.04;94.32
49342;BME280;35210;41.606;-87.602;2024-01-07T08:13:01;98591.75;;;4.07;95.20
49342;BME280;35210;41.606;-87.602;2024-01-07T08:15:29;98589.88;;;4.09;94.90
49342;BME280;35210;41.606;-87.602;2024-01-07T08:17:57;98588.94;;;4.10;94.83
49342;BME280;35210;41.606;-87.602;2024-01-07T08:20:25;98593.38;;;3.95;94.59
49342;BME280;35210;41.606;-87.602;2024-01-07T08:22:54;98588.34;;;3.92;95.66
49342;BME280;35210;41.606;-87.602;2024-01-07T08:25:24;98591.78;;;3.92;95.32
49342;BME280;35210;41.606;-87.602;2024-01-07T08:27:52;98584.31;;;4.01;95.12
49342;BME280;35210;41.606;-87.602;2024-01-07T08:30:21;98594.75;;;4.01;95.23
49342;BME280;35210;41.606;-87.602;2024-01-07T08:32:50;98596.63;;;3.99;95.38
49342;BME280;35210;41.606;-87.602;2024-01-07T08:35:18;98594.00;;;3.99;95.20
49342;BME280;35210;41.606;-87.602;2024-01-07T08:37:46;98595.38;;;4.04;95.09
49342;BME280;35210;41.606;-87.602;2024-01-07T08:40:14;98599.97;;;4.01;94.76
49342;BME280;35210;41.606;-87.602;2024-01-07T08:42:46;98596.63;;;3.99;94.45
49342;BME280;35210;41.606;-87.602;2024-01-07T08:45:15;98604.66;;;3.95;94.77
49342;BME280;35210;41.606;-87.602;2024-01-07T08:47:43;98610.63;;;3.97;95.02
49342;BME280;35210;41.606;-87.602;2024-01-07T08:50:11;98611.00;;;3.91;94.56
49342;BME280;35210;41.606;-87.602;2024-01-07T08:52:42;98622.31;;;3.78;94.55
49342;BME280;35210;41.606;-87.602;2024-01-07T08:55:10;98617.00;;;3.79;94.98
49342;BME280;35210;41.606;-87.602;2024-01-07T08:57:38;98620.53;;;3.78;94.93
49342;BME280;35210;41.606;-87.602;2024-01-07T09:00:08;98623.78;;;3.82;95.10
49342;BME280;35210;41.606;-87.602;2024-01-07T09:02:36;98617.00;;;3.79;94.67
49342;BME280;35210;41.606;-87.602;2024-01-07T09:05:06;98618.44;;;3.71;95.11
49342;BME280;35210;41.606;-87.602;2024-01-07T09:07:34;98622.59;;;3.73;95.68
49342;BME280;35210;41.606;-87.602;2024-01-07T09:10:04;98633.97;;;3.72;95.51
49342;BME280;35210;41.606;-87.602;2024-01-07T09:12:36;98642.03;;;3.69;95.09
49342;BME280;35210;41.606;-87.602;2024-01-07T09:15:07;98641.81;;;3.72;96.23
49342;BME280;35210;41.606;-87.602;2024-01-07T09:17:36;98632.19;;;3.73;95.21
49342;BME280;35210;41.606;-87.602;2024-01-07T09:20:07;98640.34;;;3.68;95.09
49342;BME280;35210;41.606;-87.602;2024-01-07T09:22:36;98636.91;;;3.68;95.71
49342;BME280;35210;41.606;-87.602;2024-01-07T09:25:04;98638.25;;;3.73;95.41
49342;BME280;35210;41.606;-87.602;2024-01-07T09:27:33;98642.63;;;3.73;95.00
49342;BME280;35210;41.606;-87.602;2024-01-07T09:30:01;98638.66;;;3.67;94.61
49342;BME280;35210;41.606;-87.602;2024-01-07T09:32:32;98640.34;;;3.68;95.78
49342;BME280;35210;41.606;-87.602;2024-01-07T09:35:00;98639.50;;;3.68;95.91
49342;BME280;35210;41.606;-87.602;2024-01-07T09:37:28;98640.25;;;3.70;96.40
49342;BME280;35210;41.606;-87.602;2024-01-07T09:39:56;98637.81;;;3.67;95.44
49342;BME280;35210;41.606;-87.602;2024-01-07T09:42:24;98637.00;;;3.66;95.80
49342;BME280;35210;41.606;-87.602;2024-01-07T09:44:52;98645.75;;;3.65;96.35
49342;BME280;35210;41.606;-87.602;2024-01-07T09:47:21;98648.31;;;3.79;95.00
49342;BME280;35210;41.606;-87.602;2024-01-07T09:49:51;98651.97;;;3.77;94.90
49342;BME280;35210;41.606;-87.602;2024-01-07T09:52:20;98652.84;;;3.63;94.48
49342;BME280;35210;41.606;-87.602;2024-01-07T09:54:51;98649.84;;;3.55;95.96
49342;BME280;35210;41.606;-87.602;2024-01-07T09:57:19;98661.50;;;3.49;96.08
49342;BME280;35210;41.606;-87.602;2024-01-07T09:59:47;98651.53;;;3.56;96.55
49342;BME280;35210;41.606;-87.602;2024-01-07T10:02:15;98651.34;;;3.59;96.31
49342;BME280;35210;41.606;-87.602;2024-01-07T10:04:43;98652.94;;;3.61;96.96
49342;BME280;35210;41.606;-87.602;2024-01-07T10:07:15;98658.81;;;3.65;96.61
49342;BME280;35210;41.606;-87.602;2024-01-07T10:09:43;98659.16;;;3.73;96.76
49342;BME280;35210;41.606;-87.602;2024-01-07T10:12:12;98663.34;;;3.76;96.24
49342;BME280;35210;41.606;-87.602;2024-01-07T10:14:40;98663.34;;;3.76;95.36
49342;BME280;35210;41.606;-87.602;2024-01-07T10:17:15;98658.44;;;3.71;95.22
49342;BME280;35210;41.606;-87.602;2024-01-07T10:19:44;98659.56;;;3.67;94.98
49342;BME280;35210;41.606;-87.602;2024-01-07T10:22:14;98669.34;;;3.63;94.91
49342;BME280;35210;41.606;-87.602;2024-01-07T10:24:43;98663.66;;;3.43;95.00
49342;BME280;35210;41.606;-87.602;2024-01-07T10:27:11;98657.50;;;3.44;95.92
49342;BME280;35210;41.606;-87.602;2024-01-07T10:29:39;98668.31;;;3.52;96.26
49342;BME280;35210;41.606;-87.602;2024-01-07T10:32:08;98666.44;;;3.54;95.25
49342;BME280;35210;41.606;-87.602;2024-01-07T10:34:37;98664.78;;;3.53;95.78
49342;BME280;35210;41.606;-87.602;2024-01-07T10:37:05;98667.19;;;3.56;95.60
49342;BME280;35210;41.606;-87.602;2024-01-07T10:39:35;98670.75;;;3.55;95.23
49342;BME280;35210;41.606;-87.602;2024-01-07T10:42:04;98662.16;;;3.53;95.73
49342;BME280;35210;41.606;-87.602;2024-01-07T10:44:33;98666.25;;;3.43;94.96
49342;BME280;35210;41.606;-87.602;2024-01-07T10:47:06;98661.59;;;3.34;95.17
49342;BME280;35210;41.606;-87.602;2024-01-07T10:49:35;98668.31;;;3.38;96.24
49342;BME280;35210;41.606;-87.602;2024-01-07T10:52:06;98676.31;;;3.35;96.08
49342;BME280;35210;41.606;-87.602;2024-01-07T10:54:36;98681.72;;;3.32;96.10
49342;BME280;35210;41.606;-87.602;2024-01-07T10:57:13;98683.47;;;3.31;96.84
49342;BME280;35210;41.606;-87.602;2024-01-07T10:59:45;98681.16;;;3.26;95.51
49342;BME280;35210;41.606;-87.602;2024-01-07T11:02:14;98684.78;;;3.24;96.07
49342;BME280;35210;41.606;-87.602;2024-01-07T11:04:47;98688.78;;;3.29;95.75
49342;BME280;35210;41.606;-87.602;2024-01-07T11:07:26;98698.00;;;3.21;95.54
49342;BME280;35210;41.606;-87.602;2024-01-07T11:10:08;98697.88;;;3.08;95.84
49342;BME280;35210;41.606;-87.602;2024-01-07T11:12:38;98707.28;;;3.11;97.31
49342;BME280;35210;41.606;-87.602;2024-01-07T11:15:06;98702.56;;;3.17;97.09
49342;BME280;35210;41.606;-87.602;2024-01-07T11:17:41;98708.69;;;3.16;96.93
49342;BME280;35210;41.606;-87.602;2024-01-07T11:20:21;98718.22;;;3.17;96.83
49342;BME280;35210;41.606;-87.602;2024-01-07T11:22:52;98720.09;;;3.29;96.21
49342;BME280;35210;41.606;-87.602;2024-01-07T11:25:44;98729.78;;;3.27;95.81
49342;BME280;35210;41.606;-87.602;2024-01-07T11:28:12;98730.34;;;3.33;96.06
49342;BME280;35210;41.606;-87.602;2024-01-07T11:30:40;98736.69;;;3.28;95.69
49342;BME280;35210;41.606;-87.602;2024-01-07T11:33:12;98744.25;;;3.33;95.60
49342;BME280;35210;41.606;-87.602;2024-01-07T11:36:02;98755.53;;;3.34;95.15
49342;BME280;35210;41.606;-87.602;2024-01-07T11:38:30;98753.19;;;3.29;95.30
49342;BME280;35210;41.606;-87.602;2024-01-07T11:41:00;98763.25;;;3.35;95.28
49342;BME280;35210;41.606;-87.602;2024-01-07T11:43:29;98770.53;;;3.30;95.68
49342;BME280;35210;41.606;-87.602;2024-01-07T11:45:58;98772.19;;;3.31;94.83
49342;BME280;35210;41.606;-87.602;2024-01-07T11:48:27;98779.75;;;3.36;95.00
49342;BME280;35210;41.606;-87.602;2024-01-07T11:50:55;98785.34;;;3.29;95.52
49342;BME280;35210;41.606;-87.602;2024-01-07T11:53:23;98784.31;;;3.32;95.22
49342;BME280;35210;41.606;-87.602;2024-01-07T11:55:51;98792.22;;;3.30;95.40
49342;BME280;35210;41.606;-87.602;2024-01-07T11:58:21;98789.34;;;3.35;94.68
49342;BME280;35210;41.606;-87.602;2024-01-07T12:00:49;98797.84;;;3.39;94.69
49342;BME280;35210;41.606;-87.602;2024-01-07T12:03:17;98808.88;;;3.44;94.84
49342;BME280;35210;41.606;-87.602;2024-01-07T12:05:45;98813.41;;;3.40;94.95
49342;BME280;35210;41.606;-87.602;2024-01-07T12:08:15;98816.28;;;3.36;94.18
49342;BME280;35210;41.606;-87.602;2024-01-07T12:10:43;98820.59;;;3.37;93.87
49342;BME280;35210;41.606;-87.602;2024-01-07T12:13:12;98821.16;;;3.42;93.82
49342;BME280;35210;41.606;-87.602;2024-01-07T12:15:42;98830.69;;;3.43;94.32
49342;BME280;35210;41.606;-87.602;2024-01-07T12:18:10;98835.63;;;3.47;94.79
49342;BME280;35210;41.606;-87.602;2024-01-07T12:20:38;98835.53;;;3.49;94.14
49342;BME280;35210;41.606;-87.602;2024-01-07T12:23:07;98838.25;;;3.47;93.74
49342;BME280;35210;41.606;-87.602;2024-01-07T12:25:35;98843.38;;;3.49;93.25
49342;BME280;35210;41.606;-87.602;2024-01-07T12:28:06;98848.69;;;3.47;93.74
49342;BME280;35210;41.606;-87.602;2024-01-07T12:30:35;98849.25;;;3.52;93.66
49342;BME280;35210;41.606;-87.602;2024-01-07T12:33:06;98851.97;;;3.51;93.29
49342;BME280;35210;41.606;-87.602;2024-01-07T12:35:35;98859.03;;;3.49;92.81
49342;BME280;35210;41.606;-87.602;2024-01-07T12:38:04;98867.44;;;3.54;93.23
49342;BME280;35210;41.606;-87.602;2024-01-07T12:40:32;98865.66;;;3.54;92.31
49342;BME280;35210;41.606;-87.602;2024-01-07T12:43:01;98876.97;;;3.55;91.94
49342;BME280;35210;41.606;-87.602;2024-01-07T12:45:29;98879.69;;;3.38;91.93
49342;BME280;35210;41.606;-87.602;2024-01-07T12:47:56;98886.31;;;3.43;92.59
49342;BME280;35210;41.606;-87.602;2024-01-07T12:50:28;98885.47;;;3.43;92.11
49342;BME280;35210;41.606;-87.602;2024-01-07T12:52:57;98886.59;;;3.39;92.85
49342;BME280;35210;41.606;-87.602;2024-01-07T12:55:25;98901.81;;;3.46;93.40
49342;BME280;35210;41.606;-87.602;2024-01-07T12:57:54;98901.41;;;3.38;92.39
49342;BME280;35210;41.606;-87.602;2024-01-07T13:00:23;98911.75;;;3.40;93.49